Time;durP1;ratioP1;P1;durP2;ratioP2;P2;SDS_P1;SDS_P2;PMS_P1;PMS_P2;Temp;Humidity;BMP_temperature;BMP_pressure;BME280_temperature;BME280_humidity;BME280_pressure;Samples;Min_cycle;Max_cycle;Signal;HPM_P1;HPM_P2
2021/11/21 00:00:05;;;;;;;20.48;11.02;;;9.50;99.90;;;;;;4992287;28;20034;-53
2021/11/21 00:02:31;;;;;;;19.95;11.25;;;9.50;99.90;;;;;;4973911;28;20039;-52
2021/11/21 00:04:56;;;;;;;19.88;11.38;;;9.50;99.90;;;;;;4993825;28;20379;-53
2021/11/21 00:07:22;;;;;;;21.67;12.73;;;9.50;99.90;;;;;;4991879;28;20069;-50
2021/11/21 00:09:49;;;;;;;22.67;12.60;;;9.50;99.90;;;;;;4988185;28;20038;-51
2021/11/21 00:12:16;;;;;;;20.85;12.23;;;9.50;99.90;;;;;;5094042;22;20033;-51
2021/11/21 00:14:41;;;;;;;22.58;12.75;;;9.50;99.90;;;;;;5012867;28;20045;-52
2021/11/21 00:17:07;;;;;;;25.63;12.93;;;9.50;99.90;;;;;;5022327;28;20099;-53
2021/11/21 00:19:37;;;;;;;20.80;12.80;;;9.50;99.90;;;;;;5022017;28;20037;-52
2021/11/21 00:22:03;;;;;;;19.13;12.45;;;9.50;99.90;;;;;;5016680;28;20052;-49
2021/11/21 00:24:28;;;;;;;23.40;12.85;;;9.50;99.90;;;;;;5039496;28;20108;-53
2021/11/21 00:26:54;;;;;;;22.85;12.90;;;9.50;99.90;;;;;;5044031;28;20033;-53
2021/11/21 00:29:20;;;;;;;22.80;11.80;;;9.50;99.90;;;;;;5025437;28;20077;-52
2021/11/21 00:31:45;;;;;;;20.55;12.85;;;9.50;99.90;;;;;;5047091;28;20052;-49
2021/11/21 00:34:11;;;;;;;21.95;12.35;;;9.50;99.90;;;;;;5049939;28;20033;-50
2021/11/21 00:36:37;;;;;;;19.38;11.90;;;9.50;99.90;;;;;;5042339;28;20049;-54
2021/11/21 00:39:04;;;;;;;21.67;12.43;;;9.50;99.90;;;;;;5040974;28;20032;-54
2021/11/21 00:41:29;;;;;;;28.50;12.70;;;9.50;99.90;;;;;;5037243;28;20042;-52
2021/11/21 00:43:55;;;;;;;20.80;13.30;;;9.50;99.90;;;;;;5032747;28;20033;-51
2021/11/21 00:46:21;;;;;;;23.25;12.77;;;9.50;99.90;;;;;;5037369;28;20053;-51
2021/11/21 00:48:47;;;;;;;18.75;12.35;;;9.50;99.90;;;;;;5036566;28;20033;-52
2021/11/21 00:51:12;;;;;;;23.98;12.45;;;9.50;99.90;;;;;;5037514;28;20048;-50
2021/11/21 00:53:42;;;;;;;22.77;12.32;;;9.50;99.90;;;;;;5022763;28;20486;-53
2021/11/21 00:56:09;;;;;;;28.48;13.05;;;9.50;99.90;;;;;;5042374;28;20581;-52
2021/11/21 00:58:36;;;;;;;18.85;11.73;;;9.50;99.90;;;;;;5040032;28;20065;-51
2021/11/21 01:01:04;;;;;;;25.40;13.13;;;9.50;99.90;;;;;;5044377;28;20061;-53
2021/11/21 01:03:29;;;;;;;27.40;13.25;;;9.50;99.90;;;;;;5029730;28;20038;-54
2021/11/21 01:05:57;;;;;;;26.33;13.55;;;9.50;99.90;;;;;;5041965;28;20041;-54
2021/11/21 01:08:24;;;;;;;21.83;12.15;;;9.50;99.90;;;;;;5008514;28;20131;-51
2021/11/21 01:13:24;;;;;;;22.50;13.30;;;9.50;99.90;;;;;;5023156;28;20042;-54
2021/11/21 01:15:50;;;;;;;27.40;13.27;;;9.50;99.90;;;;;;5017331;28;20061;-52
2021/11/21 01:18:16;;;;;;;26.52;13.57;;;9.50;99.90;;;;;;5021993;28;20478;-54
2021/11/21 01:20:42;;;;;;;23.70;12.93;;;9.50;99.90;;;;;;5035857;28;20030;-56
2021/11/21 01:23:12;;;;;;;27.77;13.40;;;9.40;99.90;;;;;;5030283;28;20033;-53
2021/11/21 01:26:05;;;;;;;25.40;12.48;;;9.50;99.90;;;;;;5025395;28;20034;-54
2021/11/21 01:28:31;;;;;;;28.17;14.25;;;9.50;99.90;;;;;;5030380;28;20034;-54
2021/11/21 01:30:57;;;;;;;25.85;13.85;;;9.50;99.90;;;;;;5025010;28;20040;-53
2021/11/21 01:33:23;;;;;;;25.10;13.00;;;9.50;99.90;;;;;;5027895;28;20072;-53
2021/11/21 01:35:48;;;;;;;25.40;13.57;;;9.50;99.90;;;;;;5025905;28;20038;-53
2021/11/21 01:38:14;;;;;;;23.73;12.98;;;9.50;99.90;;;;;;5033190;28;20038;-53
2021/11/21 01:40:39;;;;;;;30.95;13.98;;;9.50;99.90;;;;;;5025418;28;20092;-53
2021/11/21 01:43:06;;;;;;;26.30;14.18;;;9.50;99.90;;;;;;5025093;28;20486;-53
2021/11/21 01:45:32;;;;;;;26.35;14.27;;;9.50;99.90;;;;;;5034566;28;20331;-53
2021/11/21 01:47:58;;;;;;;24.85;14.07;;;9.50;99.90;;;;;;5014294;28;20041;-53
2021/11/21 01:50:33;;;;;;;25.33;13.95;;;9.50;99.90;;;;;;5023550;28;20409;-53
2021/11/21 01:53:00;;;;;;;23.17;13.05;;;9.50;99.90;;;;;;5030447;28;20060;-53
2021/11/21 01:55:25;;;;;;;23.67;14.07;;;9.50;99.90;;;;;;5026647;28;20041;-53
2021/11/21 01:57:55;;;;;;;25.63;14.05;;;9.50;99.90;;;;;;5018476;28;20034;-54
2021/11/21 02:00:23;;;;;;;25.98;13.38;;;9.50;99.90;;;;;;5012047;28;20037;-54
2021/11/21 02:02:49;;;;;;;27.45;14.80;;;9.50;99.90;;;;;;5024467;28;20038;-54
2021/11/21 02:05:14;;;;;;;28.02;14.32;;;9.50;99.90;;;;;;5033263;28;20520;-51
2021/11/21 02:07:42;;;;;;;30.25;15.50;;;9.50;99.90;;;;;;5032476;28;20040;-50
2021/11/21 02:10:10;;;;;;;30.15;14.57;;;9.50;99.90;;;;;;5029230;28;20112;-49
2021/11/21 02:12:36;;;;;;;24.88;14.35;;;9.50;99.90;;;;;;5027392;28;20271;-49
2021/11/21 02:15:03;;;;;;;23.85;14.38;;;9.50;99.90;;;;;;5023413;28;20038;-54
2021/11/21 02:17:29;;;;;;;23.95;13.48;;;9.40;99.90;;;;;;5026824;28;20045;-53
2021/11/21 02:19:54;;;;;;;25.60;13.60;;;9.50;99.90;;;;;;5025960;28;20034;-53
2021/11/21 02:22:20;;;;;;;27.42;13.52;;;9.50;99.90;;;;;;5033848;28;20108;-53
2021/11/21 02:24:46;;;;;;;25.38;13.27;;;9.50;99.90;;;;;;5032809;28;20044;-53
2021/11/21 02:27:18;;;;;;;22.30;12.85;;;9.50;99.90;;;;;;5031727;28;20037;-54
2021/11/21 02:29:44;;;;;;;26.95;13.23;;;9.50;99.90;;;;;;5023209;28;20458;-53
2021/11/21 02:32:09;;;;;;;25.25;13.98;;;9.50;99.90;;;;;;5028298;28;20112;-54
2021/11/21 02:34:35;;;;;;;27.77;14.95;;;9.50;99.90;;;;;;5032866;28;20045;-53
2021/11/21 02:37:00;;;;;;;26.27;13.43;;;9.50;99.90;;;;;;5022952;28;20076;-55
2021/11/21 02:39:27;;;;;;;20.92;13.52;;;9.50;99.90;;;;;;5028957;28;20072;-53
2021/11/21 02:41:52;;;;;;;26.25;12.63;;;9.50;99.90;;;;;;5033698;28;20040;-52
2021/11/21 02:44:18;;;;;;;21.60;13.27;;;9.40;99.90;;;;;;4991049;28;20125;-54
2021/11/21 02:46:44;;;;;;;23.85;13.30;;;9.40;99.90;;;;;;5023281;28;20121;-52
2021/11/21 02:49:09;;;;;;;26.17;13.48;;;9.50;99.90;;;;;;5022332;28;20038;-50
2021/11/21 02:51:35;;;;;;;22.88;12.45;;;9.50;99.90;;;;;;5029393;28;20094;-50
2021/11/21 02:54:00;;;;;;;20.65;11.88;;;9.50;99.90;;;;;;5033602;28;20037;-52
2021/11/21 02:56:27;;;;;;;18.00;11.02;;;9.50;99.90;;;;;;5025967;28;20033;-53
2021/11/21 02:58:53;;;;;;;19.75;11.27;;;9.50;99.90;;;;;;5033170;28;20382;-54
2021/11/21 03:01:25;;;;;;;19.58;11.65;;;9.50;99.90;;;;;;5030472;28;20035;-54
2021/11/21 03:03:51;;;;;;;18.48;10.38;;;9.50;99.90;;;;;;5027000;28;20038;-54
2021/11/21 03:06:16;;;;;;;19.92;10.73;;;9.50;99.90;;;;;;5030612;28;20045;-51
2021/11/21 03:08:42;;;;;;;19.27;10.35;;;9.50;99.90;;;;;;5014445;28;20034;-49
2021/11/21 03:11:16;;;;;;;16.02;9.82;;;9.50;99.90;;;;;;5033562;28;20044;-55
2021/11/21 03:13:41;;;;;;;18.95;9.60;;;9.50;99.90;;;;;;5028550;28;20051;-53
2021/11/21 03:16:07;;;;;;;17.42;10.20;;;9.50;99.90;;;;;;5033494;28;20397;-54
2021/11/21 03:18:33;;;;;;;16.42;9.93;;;9.50;99.90;;;;;;5025086;28;20034;-54
2021/11/21 03:20:58;;;;;;;16.77;9.95;;;9.50;99.90;;;;;;5030131;28;20116;-52
2021/11/21 03:23:24;;;;;;;16.30;9.45;;;9.50;99.90;;;;;;5027019;28;20042;-53
2021/11/21 03:25:49;;;;;;;15.02;9.32;;;9.50;99.90;;;;;;5029976;28;20453;-55
2021/11/21 03:28:16;;;;;;;16.00;9.20;;;9.50;99.90;;;;;;5020944;28;20113;-53
2021/11/21 03:30:42;;;;;;;14.60;8.88;;;9.50;99.90;;;;;;5032666;28;20053;-52
2021/11/21 03:33:08;;;;;;;12.18;8.02;;;9.60;99.90;;;;;;5010043;28;20046;-54
2021/11/21 03:35:34;;;;;;;11.93;7.38;;;9.60;99.90;;;;;;5031064;28;20034;-55
2021/11/21 03:38:01;;;;;;;19.92;7.53;;;9.60;99.90;;;;;;5028137;28;20072;-52
2021/11/21 03:40:27;;;;;;;12.05;6.75;;;9.60;99.90;;;;;;5019203;28;20045;-53
2021/11/21 03:42:53;;;;;;;11.95;6.97;;;9.60;99.90;;;;;;5014699;28;20067;-54
2021/11/21 03:45:19;;;;;;;17.23;7.30;;;9.60;99.90;;;;;;5029199;28;20034;-53
2021/11/21 03:47:47;;;;;;;11.20;6.90;;;9.60;99.90;;;;;;5028342;28;20029;-53
2021/11/21 03:50:13;;;;;;;11.35;6.78;;;9.60;99.90;;;;;;5027083;28;20037;-52
2021/11/21 03:52:41;;;;;;;12.38;6.43;;;9.60;99.90;;;;;;5027085;28;20038;-54
2021/11/21 03:55:08;;;;;;;11.77;6.45;;;9.60;99.90;;;;;;5027650;28;20048;-54
2021/11/21 03:57:34;;;;;;;12.52;6.50;;;9.60;99.90;;;;;;5028801;28;20041;-53
2021/11/21 03:59:59;;;;;;;9.90;6.15;;;9.60;99.90;;;;;;5025208;28;20045;-54
2021/11/21 04:02:25;;;;;;;9.40;5.18;;;9.60;99.90;;;;;;5021452;28;20112;-53
2021/11/21 04:04:50;;;;;;;9.20;5.57;;;9.60;99.90;;;;;;5024298;28;20114;-54
2021/11/21 04:07:16;;;;;;;10.68;5.20;;;9.60;99.90;;;;;;5030413;28;20400;-53
2021/11/21 04:09:42;;;;;;;8.98;5.07;;;9.70;99.90;;;;;;5031327;28;20424;-55
2021/11/21 04:12:08;;;;;;;10.63;5.45;;;9.70;99.90;;;;;;5031598;28;20041;-54
2021/11/21 04:14:34;;;;;;;12.20;6.03;;;9.70;99.90;;;;;;5028832;28;20065;-52
2021/11/21 04:16:59;;;;;;;11.05;5.30;;;9.70;99.90;;;;;;5008574;28;20374;-55
2021/11/21 04:19:25;;;;;;;11.48;5.28;;;9.70;99.90;;;;;;5031406;28;20035;-52
2021/11/21 04:21:50;;;;;;;9.90;4.57;;;9.70;99.90;;;;;;5024942;28;20048;-53
2021/11/21 04:24:16;;;;;;;11.32;5.25;;;9.60;99.90;;;;;;5029653;28;20042;-55
2021/11/21 04:26:44;;;;;;;14.77;4.75;;;9.60;99.90;;;;;;5031477;28;20455;-55
2021/11/21 04:29:10;;;;;;;10.93;5.00;;;9.60;99.90;;;;;;5029127;28;20109;-54
2021/11/21 04:31:36;;;;;;;11.95;4.47;;;9.60;99.90;;;;;;5031216;28;20053;-53
2021/11/21 04:34:02;;;;;;;7.90;4.65;;;9.60;99.90;;;;;;5027560;28;20033;-53
2021/11/21 04:36:27;;;;;;;9.55;4.38;;;9.60;99.90;;;;;;5022004;28;20149;-51
2021/11/21 04:38:53;;;;;;;10.98;4.82;;;9.60;99.90;;;;;;5026395;28;20030;-55
2021/11/21 04:41:19;;;;;;;9.15;4.60;;;9.60;99.90;;;;;;5027048;28;20045;-54
2021/11/21 04:43:44;;;;;;;7.53;4.20;;;9.60;99.90;;;;;;5007993;28;20034;-54
2021/11/21 04:46:12;;;;;;;11.88;4.47;;;9.60;99.90;;;;;;5028126;28;20061;-52
2021/11/21 04:48:38;;;;;;;10.98;4.75;;;9.60;99.90;;;;;;5011952;28;20409;-54
2021/11/21 04:51:04;;;;;;;8.38;4.28;;;9.60;99.90;;;;;;4981206;28;20041;-51
2021/11/21 04:53:29;;;;;;;7.50;4.00;;;9.60;99.90;;;;;;5013397;28;20033;-51
2021/11/21 04:55:55;;;;;;;8.10;4.10;;;9.60;99.90;;;;;;4973709;28;20037;-55
2021/11/21 04:58:21;;;;;;;9.75;4.80;;;9.60;99.90;;;;;;4977063;28;20037;-53
2021/11/21 05:00:47;;;;;;;7.82;4.18;;;9.60;99.90;;;;;;5019875;28;20109;-53
2021/11/21 05:03:13;;;;;;;7.88;3.78;;;9.60;99.90;;;;;;5024350;28;20060;-54
2021/11/21 05:05:39;;;;;;;7.47;3.95;;;9.50;99.90;;;;;;5027293;28;20112;-53
2021/11/21 05:08:07;;;;;;;11.43;4.10;;;9.50;99.90;;;;;;5026038;28;20084;-55
2021/11/21 05:10:33;;;;;;;9.35;4.43;;;9.50;99.90;;;;;;5009995;28;20077;-53
2021/11/21 05:12:59;;;;;;;9.55;3.88;;;9.50;99.90;;;;;;5020733;28;20554;-53
2021/11/21 05:15:25;;;;;;;7.32;3.30;;;9.50;99.90;;;;;;5029805;28;20087;-53
2021/11/21 05:17:52;;;;;;;11.07;2.97;;;9.50;99.90;;;;;;5029589;28;20492;-53
2021/11/21 05:20:19;;;;;;;9.93;3.70;;;9.50;99.90;;;;;;5025836;28;20068;-54
2021/11/21 05:22:45;;;;;;;10.80;2.72;;;9.50;99.90;;;;;;5009982;28;20052;-54
2021/11/21 05:25:12;;;;;;;9.68;2.90;;;9.50;99.90;;;;;;5026574;28;20030;-54
2021/11/21 05:27:38;;;;;;;7.00;3.10;;;9.50;99.90;;;;;;5017979;28;20045;-53
2021/11/21 05:30:05;;;;;;;10.52;2.47;;;9.50;99.90;;;;;;5029034;28;20029;-55
2021/11/21 05:32:31;;;;;;;15.25;3.85;;;9.40;99.90;;;;;;5023070;28;20038;-54
2021/11/21 05:34:56;;;;;;;8.45;2.05;;;9.50;99.90;;;;;;5027060;28;20400;-54
2021/11/21 05:37:22;;;;;;;9.80;2.38;;;9.40;99.90;;;;;;5022646;28;20070;-52
2021/11/21 05:39:48;;;;;;;7.85;2.17;;;9.40;99.90;;;;;;5026884;28;20564;-53
2021/11/21 05:42:13;;;;;;;10.35;2.83;;;9.40;99.90;;;;;;5023481;28;20040;-53
2021/11/21 05:44:39;;;;;;;10.18;2.05;;;9.40;99.90;;;;;;5022289;28;20044;-55
2021/11/21 05:47:05;;;;;;;10.00;2.42;;;9.40;99.90;;;;;;4991587;28;20091;-54
2021/11/21 05:49:31;;;;;;;10.57;2.15;;;9.40;99.90;;;;;;5027361;28;20037;-54
2021/11/21 05:51:56;;;;;;;15.18;2.65;;;9.30;99.90;;;;;;5026929;28;20045;-53
2021/11/21 05:54:22;;;;;;;10.57;2.20;;;9.30;99.90;;;;;;5030726;28;20046;-52
2021/11/21 05:56:48;;;;;;;7.13;1.92;;;9.30;99.90;;;;;;5028763;28;20482;-55
2021/11/21 05:59:13;;;;;;;12.15;2.30;;;9.30;99.90;;;;;;5026314;28;20094;-54
2021/11/21 06:01:39;;;;;;;7.57;2.08;;;9.30;99.90;;;;;;5017476;28;20092;-52
2021/11/21 06:04:06;;;;;;;9.05;1.92;;;9.20;99.90;;;;;;5023318;28;20128;-51
2021/11/21 06:06:31;;;;;;;12.38;2.22;;;9.20;99.90;;;;;;5026534;28;20068;-53
2021/11/21 06:08:57;;;;;;;12.50;2.03;;;9.20;99.90;;;;;;5029410;28;20459;-52
2021/11/21 06:11:23;;;;;;;9.13;2.15;;;9.20;99.90;;;;;;5033354;28;20240;-54
2021/11/21 06:13:48;;;;;;;11.77;1.67;;;9.20;99.90;;;;;;5029285;28;20183;-51
2021/11/21 06:16:14;;;;;;;10.35;1.70;;;9.20;99.90;;;;;;5027945;28;20084;-54
2021/11/21 06:18:40;;;;;;;14.27;2.10;;;9.20;99.90;;;;;;5033692;28;20064;-51
2021/11/21 06:21:06;;;;;;;10.48;1.60;;;9.10;99.90;;;;;;4999972;28;20083;-54
2021/11/21 06:23:35;;;;;;;12.57;2.03;;;9.10;99.90;;;;;;5009346;28;20136;-53
2021/11/21 06:26:02;;;;;;;10.52;2.08;;;9.10;99.90;;;;;;5032515;28;20048;-55
2021/11/21 06:28:28;;;;;;;11.48;1.63;;;9.10;99.90;;;;;;5030350;28;20037;-54
2021/11/21 06:30:53;;;;;;;12.80;1.83;;;9.10;99.90;;;;;;5032743;28;20048;-54
2021/11/21 06:33:20;;;;;;;17.10;1.63;;;9.00;99.90;;;;;;5029572;28;20080;-52
2021/11/21 06:35:45;;;;;;;14.32;2.42;;;9.00;99.90;;;;;;5025353;28;20044;-53
2021/11/21 06:38:13;;;;;;;13.23;1.80;;;9.00;99.90;;;;;;5027706;28;20038;-54
2021/11/21 06:40:39;;;;;;;17.52;2.80;;;9.00;99.90;;;;;;5027979;28;20501;-54
2021/11/21 06:43:04;;;;;;;14.23;1.92;;;9.00;99.90;;;;;;5032067;28;20030;-55
2021/11/21 06:45:30;;;;;;;10.25;1.52;;;9.00;99.90;;;;;;5033161;28;20486;-54
2021/11/21 06:47:56;;;;;;;11.38;1.80;;;8.90;99.90;;;;;;5032811;28;20037;-55
2021/11/21 06:50:22;;;;;;;10.27;1.70;;;8.90;99.90;;;;;;5033301;28;20136;-53
2021/11/21 06:52:47;;;;;;;11.68;1.92;;;8.90;99.90;;;;;;5028740;28;20081;-55
2021/11/21 06:55:14;;;;;;;17.10;2.50;;;8.90;99.90;;;;;;4992458;28;20108;-53
2021/11/21 06:57:40;;;;;;;14.82;3.00;;;8.90;99.90;;;;;;5023434;28;20490;-52
2021/11/21 07:00:09;;;;;;;13.93;2.20;;;8.80;99.90;;;;;;5005637;28;20038;-53
2021/11/21 07:02:35;;;;;;;18.23;2.20;;;8.80;99.90;;;;;;5021436;28;20030;-52
2021/11/21 07:05:00;;;;;;;11.10;1.88;;;8.70;99.90;;;;;;5030693;28;20083;-53
2021/11/21 07:07:26;;;;;;;16.58;2.17;;;8.70;99.90;;;;;;5019558;28;20091;-54
2021/11/21 07:09:52;;;;;;;17.70;2.03;;;8.70;99.90;;;;;;5027372;28;20037;-55
2021/11/21 07:12:18;;;;;;;10.38;1.80;;;8.70;99.90;;;;;;5017693;28;20065;-55
2021/11/21 07:14:43;;;;;;;11.70;1.58;;;8.70;99.90;;;;;;5031313;28;20468;-51
2021/11/21 07:17:09;;;;;;;10.60;1.67;;;8.70;99.90;;;;;;5032677;28;20045;-55
2021/11/21 07:19:34;;;;;;;12.95;1.67;;;8.60;99.90;;;;;;5025224;28;20103;-54
2021/11/21 07:22:00;;;;;;;11.48;1.90;;;8.60;99.90;;;;;;5029819;28;20501;-54
2021/11/21 07:24:26;;;;;;;16.55;2.53;;;8.60;99.90;;;;;;5026406;28;20456;-53
2021/11/21 07:26:54;;;;;;;10.57;2.38;;;8.50;99.90;;;;;;5027143;28;20041;-53
2021/11/21 07:29:26;;;;;;;9.25;1.73;;;8.50;99.90;;;;;;5029998;28;20037;-53
2021/11/21 07:31:52;;;;;;;10.00;2.08;;;8.40;99.90;;;;;;5032330;28;20401;-54
2021/11/21 07:34:17;;;;;;;9.15;1.40;;;8.40;99.90;;;;;;5031629;28;20037;-54
2021/11/21 07:36:43;;;;;;;15.63;2.38;;;8.40;99.90;;;;;;5026870;28;20482;-53
2021/11/21 07:39:08;;;;;;;9.43;1.63;;;8.30;99.90;;;;;;5025861;28;20486;-53
2021/11/21 07:41:34;;;;;;;10.70;1.83;;;8.30;99.90;;;;;;5022333;28;20565;-54
2021/11/21 07:44:01;;;;;;;14.10;2.05;;;8.20;99.90;;;;;;5029387;28;20044;-54
2021/11/21 07:46:27;;;;;;;12.40;1.75;;;8.20;99.90;;;;;;5010970;28;20053;-55
2021/11/21 07:48:53;;;;;;;13.30;1.90;;;8.20;99.90;;;;;;5027477;28;20029;-55
2021/11/21 07:51:19;;;;;;;12.63;1.65;;;8.20;99.90;;;;;;5028720;28;20033;-55
2021/11/21 07:53:45;;;;;;;11.07;1.77;;;8.20;99.90;;;;;;5023562;28;20042;-55
2021/11/21 07:56:10;;;;;;;10.05;1.90;;;8.10;99.90;;;;;;5022275;28;20041;-55
2021/11/21 07:58:36;;;;;;;10.60;1.95;;;8.10;99.90;;;;;;5025969;28;20053;-54
2021/11/21 08:01:02;;;;;;;12.95;2.10;;;8.10;99.90;;;;;;5011176;28;20030;-55
2021/11/21 08:03:28;;;;;;;18.35;2.53;;;8.00;99.90;;;;;;5022027;28;20034;-55
2021/11/21 08:05:53;;;;;;;13.60;1.70;;;8.00;99.90;;;;;;5023940;28;20037;-56
2021/11/21 08:08:19;;;;;;;12.57;1.73;;;7.90;99.90;;;;;;5028462;28;20033;-54
2021/11/21 08:10:46;;;;;;;7.75;1.60;;;7.90;99.90;;;;;;4982616;28;20114;-54
2021/11/21 08:13:11;;;;;;;11.48;1.85;;;7.80;99.90;;;;;;5024339;28;20050;-54
2021/11/21 08:15:37;;;;;;;10.65;1.85;;;7.80;99.90;;;;;;5016490;28;20498;-54
2021/11/21 08:18:03;;;;;;;15.65;1.90;;;7.80;99.90;;;;;;5025638;28;20489;-54
2021/11/21 08:20:29;;;;;;;13.32;1.77;;;7.70;99.90;;;;;;5029586;28;20163;-54
2021/11/21 08:22:55;;;;;;;16.52;2.47;;;7.70;99.90;;;;;;5028335;28;20528;-54
2021/11/21 08:25:21;;;;;;;10.77;2.05;;;7.70;99.90;;;;;;5030768;28;20632;-54
2021/11/21 08:27:46;;;;;;;13.48;2.08;;;7.70;99.90;;;;;;5022859;28;20120;-54
2021/11/21 08:30:12;;;;;;;11.73;1.80;;;7.60;99.90;;;;;;5028637;28;20102;-54
2021/11/21 08:32:38;;;;;;;11.73;1.80;;;7.60;99.90;;;;;;5024185;28;20041;-55
2021/11/21 08:35:05;;;;;;;10.43;1.80;;;7.60;99.90;;;;;;5028483;28;20494;-54
2021/11/21 08:37:30;;;;;;;14.23;2.72;;;7.60;99.90;;;;;;5031091;28;20037;-55
2021/11/21 08:39:56;;;;;;;12.27;1.80;;;7.60;99.90;;;;;;5023507;28;20033;-55
2021/11/21 08:42:22;;;;;;;17.50;2.33;;;7.70;99.90;;;;;;5029001;28;20033;-54
2021/11/21 08:44:47;;;;;;;14.27;2.33;;;7.70;99.90;;;;;;5025574;28;20446;-54
2021/11/21 08:47:15;;;;;;;18.15;3.15;;;7.70;99.90;;;;;;5030753;28;20041;-54
2021/11/21 08:49:41;;;;;;;14.80;2.80;;;7.70;99.90;;;;;;5029943;28;20088;-55
2021/11/21 08:52:07;;;;;;;10.48;1.65;;;7.80;99.90;;;;;;5026450;28;20527;-55
2021/11/21 08:54:32;;;;;;;11.88;2.55;;;7.80;99.90;;;;;;5031158;28;20041;-54
2021/11/21 08:56:59;;;;;;;17.00;2.67;;;7.80;99.90;;;;;;5016412;28;20406;-55
2021/11/21 08:59:24;;;;;;;15.15;2.17;;;7.90;99.90;;;;;;5018877;28;20038;-54
2021/11/21 09:01:51;;;;;;;15.57;2.63;;;7.90;99.90;;;;;;5022805;28;20046;-55
2021/11/21 09:04:17;;;;;;;15.73;2.10;;;7.90;99.90;;;;;;5023272;28;20040;-54
2021/11/21 09:06:44;;;;;;;12.68;2.20;;;7.90;99.90;;;;;;5028224;28;20042;-55
2021/11/21 09:09:10;;;;;;;12.48;2.22;;;8.00;99.90;;;;;;5026272;28;20424;-55
2021/11/21 09:11:36;;;;;;;8.52;2.20;;;8.00;99.90;;;;;;5021671;28;20111;-54
2021/11/21 09:14:03;;;;;;;12.20;1.83;;;8.00;99.90;;;;;;5003313;28;20045;-55
2021/11/21 09:16:29;;;;;;;11.98;2.10;;;8.00;99.90;;;;;;5026681;28;20104;-55
2021/11/21 09:18:54;;;;;;;18.05;1.73;;;8.10;99.90;;;;;;5013598;28;20029;-55
2021/11/21 09:21:20;;;;;;;14.00;2.28;;;8.10;99.90;;;;;;5015634;28;20088;-55
2021/11/21 09:23:45;;;;;;;12.50;2.17;;;8.20;99.90;;;;;;5019793;28;20038;-55
2021/11/21 09:26:11;;;;;;;16.13;3.05;;;8.20;99.90;;;;;;5022059;28;20125;-55
2021/11/21 09:28:36;;;;;;;15.90;2.72;;;8.20;99.90;;;;;;5017776;28;20046;-55
2021/11/21 09:31:02;;;;;;;16.05;2.60;;;8.30;99.90;;;;;;5016872;28;20037;-55
2021/11/21 09:33:31;;;;;;;10.82;2.03;;;8.30;99.90;;;;;;5014630;28;20104;-55
2021/11/21 09:35:56;;;;;;;15.88;2.58;;;8.40;99.90;;;;;;5019669;28;20500;-55
2021/11/21 09:38:24;;;;;;;13.70;2.22;;;8.40;99.90;;;;;;5025394;28;20038;-55
2021/11/21 09:40:50;;;;;;;11.82;2.38;;;8.50;99.90;;;;;;5025545;28;20429;-55
2021/11/21 09:43:16;;;;;;;15.55;2.33;;;8.50;99.90;;;;;;5006416;28;20040;-55
2021/11/21 09:45:41;;;;;;;15.00;2.38;;;8.60;99.90;;;;;;5028280;28;20033;-55
2021/11/21 09:48:08;;;;;;;10.68;1.90;;;8.60;99.90;;;;;;5032887;28;20083;-55
2021/11/21 09:50:38;;;;;;;13.68;2.10;;;8.60;99.90;;;;;;5034410;28;20029;-55
2021/11/21 09:53:04;;;;;;;17.38;1.98;;;8.70;99.90;;;;;;5029030;28;20030;-54
2021/11/21 09:55:30;;;;;;;11.20;2.13;;;8.70;99.90;;;;;;5032930;28;20375;-54
2021/11/21 09:57:55;;;;;;;14.38;2.30;;;8.70;99.90;;;;;;5027657;28;20121;-55
2021/11/21 10:00:24;;;;;;;13.63;1.88;;;8.80;99.90;;;;;;5028016;28;20040;-55
2021/11/21 10:02:59;;;;;;;11.65;2.17;;;8.80;99.90;;;;;;5015936;28;20108;-55
2021/11/21 10:05:30;;;;;;;12.50;2.03;;;8.90;99.90;;;;;;5023493;28;20406;-55
2021/11/21 10:08:05;;;;;;;17.15;3.03;;;8.90;99.90;;;;;;5026445;28;20055;-55
2021/11/21 10:11:08;;;;;;;16.85;2.47;;;9.00;99.90;;;;;;5030759;28;20079;-54
2021/11/21 10:13:42;;;;;;;13.57;1.98;;;9.00;99.90;;;;;;4972371;28;20068;-54
2021/11/21 10:16:19;;;;;;;11.15;2.00;;;9.00;99.90;;;;;;5027391;28;20481;-53
2021/11/21 10:18:54;;;;;;;15.07;2.55;;;9.10;99.90;;;;;;5021901;28;20119;-53
2021/11/21 10:21:25;;;;;;;16.20;2.92;;;9.10;99.90;;;;;;5023137;28;20135;-54
2021/11/21 10:24:21;;;;;;;8.57;1.83;;;9.10;99.90;;;;;;4986032;28;20085;-55
2021/11/21 10:26:59;;;;;;;11.55;2.95;;;9.20;99.90;;;;;;5018352;28;20078;-55
2021/11/21 10:29:32;;;;;;;12.05;2.50;;;9.20;99.90;;;;;;5018258;28;20125;-55
2021/11/21 10:31:59;;;;;;;12.07;2.33;;;9.30;99.90;;;;;;5017526;28;20117;-55
2021/11/21 10:34:25;;;;;;;18.13;2.90;;;9.30;99.90;;;;;;5002552;28;20053;-55
2021/11/21 10:36:50;;;;;;;11.63;1.90;;;9.40;99.90;;;;;;5019555;28;20087;-55
2021/11/21 10:39:20;;;;;;;12.77;2.17;;;9.40;99.90;;;;;;5019593;28;20038;-55
2021/11/21 10:41:51;;;;;;;9.48;1.90;;;9.50;99.90;;;;;;5018949;28;20041;-55
2021/11/21 10:44:22;;;;;;;15.27;2.03;;;9.50;99.90;;;;;;5021331;28;20038;-55
2021/11/21 10:46:58;;;;;;;13.40;1.88;;;9.40;99.90;;;;;;5017975;28;21360;-55
2021/11/21 10:49:36;;;;;;;14.85;2.10;;;9.40;99.90;;;;;;5018491;28;20161;-54
2021/11/21 10:52:08;;;;;;;10.25;1.90;;;9.50;99.90;;;;;;5019272;28;20466;-55
2021/11/21 10:54:45;;;;;;;15.18;2.05;;;9.50;99.90;;;;;;5016069;28;20042;-53
2021/11/21 10:57:23;;;;;;;11.15;2.00;;;9.50;99.90;;;;;;5016664;28;20081;-50
2021/11/21 10:59:51;;;;;;;13.63;1.90;;;9.60;99.90;;;;;;5017455;28;20068;-55
2021/11/21 11:02:26;;;;;;;9.77;1.60;;;9.60;99.90;;;;;;5017513;28;20052;-55
2021/11/21 11:05:04;;;;;;;11.48;1.88;;;9.60;99.90;;;;;;5017388;28;20038;-55
2021/11/21 11:07:36;;;;;;;8.63;1.70;;;9.70;99.90;;;;;;5003721;28;20265;-54
2021/11/21 11:10:05;;;;;;;14.85;1.73;;;9.70;99.90;;;;;;5025850;28;20065;-54
2021/11/21 11:12:30;;;;;;;11.25;1.48;;;9.70;99.90;;;;;;5024498;28;20041;-52
2021/11/21 11:14:57;;;;;;;10.80;1.80;;;9.70;99.90;;;;;;5025103;28;20425;-51
2021/11/21 11:17:25;;;;;;;8.50;1.60;;;9.70;99.90;;;;;;5020737;28;20068;-54
2021/11/21 11:19:54;;;;;;;11.20;2.20;;;9.70;99.90;;;;;;5026130;28;20041;-55
2021/11/21 11:22:20;;;;;;;9.60;1.70;;;9.80;99.90;;;;;;5025117;28;20112;-55
2021/11/21 11:24:48;;;;;;;6.55;1.70;;;9.80;99.90;;;;;;5027423;28;20380;-55
2021/11/21 11:27:25;;;;;;;9.27;2.58;;;9.80;99.90;;;;;;5027237;28;20033;-55
2021/11/21 11:29:52;;;;;;;10.60;1.88;;;9.80;99.90;;;;;;5023879;28;20818;-55
2021/11/21 11:32:36;;;;;;;11.50;1.92;;;9.80;99.90;;;;;;5016546;28;20065;-53
2021/11/21 11:35:04;;;;;;;14.77;3.65;;;9.80;99.90;;;;;;5017532;28;20065;-55
2021/11/21 11:37:48;;;;;;;12.50;2.75;;;9.90;99.90;;;;;;5029590;28;20042;-53
2021/11/21 11:40:29;;;;;;;11.30;1.50;;;9.90;99.90;;;;;;5027117;28;20034;-54
2021/11/21 11:42:57;;;;;;;10.73;1.70;;;9.90;99.90;;;;;;5025192;28;20497;-53
2021/11/21 11:45:44;;;;;;;13.02;1.80;;;9.90;99.90;;;;;;5027760;28;20079;-53
2021/11/21 11:48:51;;;;;;;13.13;2.20;;;10.00;99.90;;;;;;5030253;28;20044;-51
2021/11/21 11:51:49;;;;;;;11.15;1.73;;;10.00;99.90;;;;;;5016072;28;20064;-52
2021/11/21 11:54:15;;;;;;;10.98;1.67;;;10.00;99.90;;;;;;5023504;28;20041;-51
2021/11/21 11:56:48;;;;;;;15.15;1.77;;;10.00;99.90;;;;;;5025727;28;20056;-51
2021/11/21 11:59:25;;;;;;;6.68;1.90;;;10.00;99.90;;;;;;5027803;28;20034;-51
2021/11/21 12:01:55;;;;;;;10.95;2.03;;;10.10;99.90;;;;;;5031658;28;20501;-52
2021/11/21 12:04:23;;;;;;;9.15;1.70;;;10.10;99.90;;;;;;5025798;28;20049;-54
2021/11/21 12:06:59;;;;;;;6.88;1.45;;;10.20;99.90;;;;;;4996432;28;20096;-52
2021/11/21 12:09:27;;;;;;;11.18;1.38;;;10.30;99.90;;;;;;5016554;28;20046;-52
2021/11/21 12:12:01;;;;;;;11.63;1.63;;;10.40;99.90;;;;;;5053749;22;20029;-53
2021/11/21 12:14:35;;;;;;;11.27;2.15;;;10.40;99.90;;;;;;5002501;28;20041;-50
2021/11/21 12:17:09;;;;;;;8.25;1.50;;;10.50;99.90;;;;;;4999885;28;20030;-50
2021/11/21 12:19:46;;;;;;;8.82;1.38;;;10.50;99.90;;;;;;4964365;28;20047;-51
2021/11/21 12:22:24;;;;;;;8.68;1.27;;;10.50;98.70;;;;;;4998116;28;20513;-52
2021/11/21 12:24:58;;;;;;;7.82;1.42;;;10.40;99.20;;;;;;5000740;28;20035;-52
2021/11/21 12:36:11;;;;;;;7.45;1.50;;;10.30;99.90;;;;;;5005099;28;20042;-52
2021/11/21 12:38:36;;;;;;;9.45;2.00;;;10.30;99.90;;;;;;5002355;28;20498;-52
2021/11/21 12:41:08;;;;;;;9.65;1.70;;;10.30;99.30;;;;;;5004590;28;20038;-51
2021/11/21 12:46:05;;;;;;;8.50;1.52;;;10.40;99.30;;;;;;5003175;28;20057;-53
2021/11/21 12:48:31;;;;;;;9.98;1.80;;;10.30;99.90;;;;;;4985148;28;20041;-53
2021/11/21 12:50:58;;;;;;;4.60;1.67;;;10.30;99.80;;;;;;5002381;28;20062;-55
2021/11/21 12:53:35;;;;;;;3.05;1.17;;;10.40;97.30;;;;;;5002833;28;20176;-52
2021/11/21 12:56:06;;;;;;;6.70;0.95;;;10.30;97.10;;;;;;5002212;28;20065;-52
2021/11/21 13:02:15;;;;;;;9.23;1.30;;;10.10;97.80;;;;;;5032440;22;20052;-87
2021/11/21 13:05:02;;;;;;;4.38;1.20;;;10.00;99.30;;;;;;5024870;28;20037;-88